Time;durP1;ratioP1;P1;durP2;ratioP2;P2;SDS_P1;SDS_P2;PMS_P1;PMS_P2;Temp;Humidity;BMP_temperature;BMP_pressure;BME280_temperature;BME280_humidity;BME280_pressure;Samples;Min_cycle;Max_cycle;Signal;HPM_P1;HPM_P2
2023/08/18 00:02:03;;;;;;;4.38;3.55;;;;;;;23.55;89.62;100516.06;4879202;29;20237;-70
2023/08/18 00:04:32;;;;;;;4.93;3.47;;;;;;;23.55;89.69;100510.63;4879334;29;20253;-70
2023/08/18 00:06:59;;;;;;;4.60;3.85;;;;;;;23.55;89.83;100510.63;4878572;29;20289;-70
2023/08/18 00:09:27;;;;;;;5.68;3.78;;;;;;;23.55;89.96;100509.81;4879602;29;20214;-70
2023/08/18 00:11:55;;;;;;;6.30;3.83;;;;;;;23.53;90.31;100506.50;4879051;29;20320;-71
2023/08/18 00:14:23;;;;;;;4.93;3.75;;;;;;;23.52;90.50;100500.25;4881312;29;20652;-68
2023/08/18 00:16:50;;;;;;;5.03;3.78;;;;;;;23.50;90.43;100501.53;4880860;29;20237;-69
2023/08/18 00:19:18;;;;;;;6.97;4.03;;;;;;;23.49;90.56;100500.72;4881679;29;20221;-70
2023/08/18 00:21:47;;;;;;;8.75;3.80;;;;;;;23.49;90.75;100499.91;4878798;29;20215;-69
2023/08/18 00:24:15;;;;;;;4.80;3.97;;;;;;;23.48;90.69;100503.66;4876997;29;20324;-70
2023/08/18 00:26:42;;;;;;;6.38;3.72;;;;;;;23.45;90.96;100499.53;4877196;29;20313;-69
2023/08/18 00:29:10;;;;;;;7.93;3.85;;;;;;;23.46;90.91;100512.00;4879708;29;20214;-70
2023/08/18 00:31:38;;;;;;;5.85;4.10;;;;;;;23.44;90.92;100514.09;4877096;29;20616;-69
2023/08/18 00:34:06;;;;;;;4.70;3.78;;;;;;;23.43;91.24;100504.34;4877105;29;20202;-69
2023/08/18 00:36:33;;;;;;;5.18;3.90;;;;;;;23.42;91.38;100508.09;4877183;29;20233;-70
2023/08/18 00:39:03;;;;;;;4.57;3.72;;;;;;;23.43;91.29;100509.75;4878041;29;20233;-69
2023/08/18 00:41:31;;;;;;;6.72;3.75;;;;;;;23.43;91.53;100500.81;4875885;29;20226;-70
2023/08/18 00:43:58;;;;;;;5.00;4.07;;;;;;;23.39;91.90;100500.44;4875916;29;20648;-69
2023/08/18 00:46:27;;;;;;;7.38;4.30;;;;;;;23.40;91.76;100499.38;4878380;29;20305;-69
2023/08/18 00:48:59;;;;;;;6.03;4.32;;;;;;;23.34;93.53;100511.13;4876290;29;20808;-68
2023/08/18 00:51:27;;;;;;;5.00;4.30;;;;;;;23.28;92.88;100503.94;4877752;29;20304;-69
2023/08/18 00:53:55;;;;;;;7.32;4.32;;;;;;;23.26;93.08;100503.34;4878314;29;20293;-69
2023/08/18 00:56:25;;;;;;;6.85;4.20;;;;;;;23.27;93.00;100499.59;4878016;29;20241;-70
2023/08/18 00:58:54;;;;;;;7.70;3.45;;;;;;;23.27;92.62;100495.00;4879505;29;20304;-69
2023/08/18 01:01:22;;;;;;;6.05;4.13;;;;;;;23.30;92.82;100495.59;4877587;29;20210;-70
2023/08/18 01:03:50;;;;;;;8.50;4.22;;;;;;;23.28;92.57;100498.53;4876798;29;20211;-69
2023/08/18 01:06:18;;;;;;;9.00;4.82;;;;;;;23.27;92.66;100491.47;4876956;29;20218;-70
2023/08/18 01:08:46;;;;;;;6.00;4.30;;;;;;;23.25;92.66;100497.09;4880449;29;20297;-72
2023/08/18 01:11:22;;;;;;;6.32;4.20;;;;;;;23.27;92.50;100494.16;4873793;29;20233;-70
2023/08/18 01:13:58;;;;;;;6.45;4.25;;;;;;;23.23;92.89;100487.56;4876260;29;20986;-69
2023/08/18 01:16:29;;;;;;;5.05;4.13;;;;;;;23.20;93.22;100486.16;4874086;29;20987;-69
2023/08/18 01:18:57;;;;;;;8.40;4.55;;;;;;;23.18;93.16;100482.84;4875264;29;20214;-69
2023/08/18 01:21:25;;;;;;;6.93;4.35;;;;;;;23.18;93.37;100487.44;4876409;29;20206;-70
2023/08/18 01:23:54;;;;;;;8.82;4.50;;;;;;;23.18;93.18;100479.31;4877645;29;20214;-69
2023/08/18 01:26:22;;;;;;;7.60;4.78;;;;;;;23.20;93.20;100482.63;4875260;29;20308;-69
2023/08/18 01:28:50;;;;;;;7.13;4.63;;;;;;;23.15;93.57;100485.19;4875691;29;20229;-70
2023/08/18 01:31:24;;;;;;;8.68;4.70;;;;;;;23.13;93.67;100474.59;4874447;29;20210;-68
2023/08/18 01:33:58;;;;;;;7.82;4.45;;;;;;;23.14;93.75;100475.41;4877962;29;20212;-70
2023/08/18 01:36:30;;;;;;;5.75;4.40;;;;;;;23.15;93.49;100477.06;4876621;29;20572;-69
2023/08/18 01:39:02;;;;;;;7.88;4.80;;;;;;;23.12;93.63;100481.06;4877316;29;20270;-69
2023/08/18 01:41:31;;;;;;;7.28;4.43;;;;;;;23.11;93.73;100475.91;4875287;29;20259;-69
2023/08/18 01:44:00;;;;;;;5.60;4.60;;;;;;;23.12;93.67;100485.66;4877956;29;20225;-68
2023/08/18 01:46:27;;;;;;;6.25;4.93;;;;;;;23.08;93.81;100473.63;4876836;29;20218;-68
2023/08/18 01:48:55;;;;;;;6.15;4.65;;;;;;;23.05;93.94;100479.50;4873466;29;20220;-69
2023/08/18 01:51:23;;;;;;;5.70;4.25;;;;;;;23.03;93.91;100473.50;4877651;29;20269;-68
2023/08/18 01:53:51;;;;;;;6.68;5.07;;;;;;;23.02;93.93;100472.69;4875381;29;20214;-70
2023/08/18 01:56:20;;;;;;;6.40;4.32;;;;;;;23.03;94.13;100474.34;4876965;29;20233;-69
2023/08/18 01:58:47;;;;;;;7.10;5.15;;;;;;;23.01;94.05;100465.63;4874733;29;20301;-69
2023/08/18 02:01:15;;;;;;;6.68;4.40;;;;;;;23.02;94.17;100469.16;4874972;29;20206;-69
2023/08/18 02:03:43;;;;;;;6.00;4.82;;;;;;;23.01;94.22;100468.34;4874315;29;20233;-69
2023/08/18 02:06:11;;;;;;;6.50;4.18;;;;;;;22.94;95.25;100462.19;4880180;29;20210;-69
2023/08/18 02:08:44;;;;;;;9.18;4.78;;;;;;;22.89;95.29;100462.88;4877586;29;20297;-69
2023/08/18 02:11:12;;;;;;;7.22;4.30;;;;;;;22.88;95.52;100454.97;4876739;29;20237;-71
2023/08/18 02:13:41;;;;;;;5.80;4.70;;;;;;;22.89;95.11;100456.63;4878712;29;20215;-69
2023/08/18 02:16:09;;;;;;;7.18;5.38;;;;;;;22.89;95.23;100452.06;4878437;29;20333;-69
2023/08/18 02:18:36;;;;;;;9.57;5.10;;;;;;;22.89;95.09;100453.94;4875401;29;20264;-69
2023/08/18 02:21:05;;;;;;;7.00;4.75;;;;;;;22.86;95.06;100449.81;4874890;29;20206;-69
2023/08/18 02:23:51;;;;;;;6.47;4.93;;;;;;;22.87;95.00;100458.72;4878820;29;20205;-69
2023/08/18 02:26:19;;;;;;;6.82;4.60;;;;;;;22.86;95.19;100457.94;4878697;29;20218;-69
2023/08/18 02:28:48;;;;;;;8.77;4.90;;;;;;;22.84;95.43;100459.22;4876909;29;20305;-69
2023/08/18 02:31:16;;;;;;;12.82;5.15;;;;;;;22.82;95.27;100456.72;4880504;29;20209;-69
2023/08/18 02:33:43;;;;;;;8.48;5.75;;;;;;;22.83;95.17;100455.69;4877963;29;20324;-69
2023/08/18 02:36:12;;;;;;;7.38;5.60;;;;;;;22.81;95.15;100457.78;4878727;29;20210;-69
2023/08/18 02:38:40;;;;;;;8.82;5.22;;;;;;;22.80;95.41;100458.00;4874703;29;20218;-69
2023/08/18 02:41:08;;;;;;;8.48;5.28;;;;;;;22.77;95.56;100458.47;4879103;29;20297;-68
2023/08/18 02:43:36;;;;;;;7.53;5.57;;;;;;;22.75;95.30;100444.34;4877855;29;20312;-69
2023/08/18 02:46:05;;;;;;;9.68;5.57;;;;;;;22.75;95.40;100447.06;4877982;29;20793;-70
2023/08/18 02:48:32;;;;;;;9.02;5.60;;;;;;;22.73;95.77;100455.38;4876208;29;20214;-69
2023/08/18 02:51:03;;;;;;;7.78;5.40;;;;;;;22.72;95.79;100450.19;4876724;29;20233;-69
2023/08/18 02:53:31;;;;;;;9.43;6.10;;;;;;;22.71;95.37;100448.53;4876814;29;20221;-68
2023/08/18 02:55:59;;;;;;;8.95;5.60;;;;;;;22.72;95.44;100444.78;4876689;29;20644;-70
2023/08/18 02:58:28;;;;;;;8.60;5.78;;;;;;;22.72;95.50;100445.59;4880212;29;20232;-69
2023/08/18 03:00:56;;;;;;;11.55;5.80;;;;;;;22.70;95.37;100436.06;4876732;29;20225;-68
2023/08/18 03:03:25;;;;;;;7.70;5.53;;;;;;;22.70;95.46;100442.28;4875513;29;20324;-69
2023/08/18 03:05:53;;;;;;;8.65;5.90;;;;;;;22.68;95.14;100433.63;4879504;29;20218;-68
2023/08/18 03:08:21;;;;;;;10.68;6.53;;;;;;;22.67;95.18;100441.94;4876506;29;20246;-69
2023/08/18 03:10:56;;;;;;;9.10;6.60;;;;;;;22.64;95.11;100429.69;4876502;29;20283;-69
2023/08/18 03:13:24;;;;;;;9.52;5.80;;;;;;;22.61;95.70;100440.13;4878311;29;20244;-68
2023/08/18 03:15:52;;;;;;;7.70;5.38;;;;;;;22.61;95.43;100440.94;4878183;29;20301;-70
2023/08/18 03:18:19;;;;;;;10.32;5.57;;;;;;;22.61;95.38;100432.84;4878124;29;20234;-69
2023/08/18 03:20:49;;;;;;;12.93;6.53;;;;;;;22.61;95.21;100442.81;4879557;29;20265;-69
2023/08/18 03:23:19;;;;;;;15.77;5.95;;;;;;;22.59;95.41;100437.69;4879548;29;20262;-68
2023/08/18 03:25:47;;;;;;;10.52;5.80;;;;;;;22.57;95.62;100452.47;4878787;29;20324;-69
2023/08/18 03:28:15;;;;;;;8.65;5.65;;;;;;;22.55;95.76;100454.56;4878769;29;20210;-69
2023/08/18 03:30:42;;;;;;;9.70;6.63;;;;;;;22.52;95.82;100451.25;4878795;29;20262;-69
2023/08/18 03:33:11;;;;;;;11.90;6.72;;;;;;;22.53;95.47;100452.91;4879292;29;20286;-69
2023/08/18 03:35:38;;;;;;;10.15;5.80;;;;;;;22.52;95.56;100450.41;4879079;29;20213;-69
2023/08/18 03:38:07;;;;;;;9.30;6.57;;;;;;;22.52;95.57;100458.53;4878404;29;20269;-69
2023/08/18 03:40:35;;;;;;;8.07;6.65;;;;;;;22.50;95.42;100461.47;4879229;29;20210;-70
2023/08/18 03:43:03;;;;;;;7.43;6.40;;;;;;;22.50;95.50;100468.75;4877654;29;20352;-69
2023/08/18 03:45:30;;;;;;;13.43;6.13;;;;;;;22.50;95.32;100468.75;4878620;29;20213;-68
2023/08/18 03:47:58;;;;;;;8.98;6.38;;;;;;;22.49;95.25;100473.34;4878076;29;20213;-69
2023/08/18 03:50:26;;;;;;;9.73;6.50;;;;;;;22.48;95.35;100470.84;4879925;29;20205;-69
2023/08/18 03:52:55;;;;;;;11.02;5.90;;;;;;;22.46;95.35;100472.94;4877189;29;20237;-69
2023/08/18 03:55:24;;;;;;;13.45;6.45;;;;;;;22.47;95.10;100474.59;4876783;29;20221;-68
2023/08/18 03:57:52;;;;;;;8.57;6.90;;;;;;;22.46;95.11;100471.06;4875967;29;20588;-68
2023/08/18 04:00:19;;;;;;;9.57;5.95;;;;;;;22.45;95.01;100471.28;4875153;29;20234;-70
2023/08/18 04:02:48;;;;;;;14.38;6.50;;;;;;;22.43;95.04;100476.91;4876477;29;20220;-69
2023/08/18 04:05:16;;;;;;;11.27;6.68;;;;;;;22.42;95.27;100482.56;4877541;29;20214;-68
2023/08/18 04:07:43;;;;;;;11.00;8.30;;;;;;;22.38;95.35;100481.34;4877819;29;20790;-70
2023/08/18 04:10:11;;;;;;;10.27;7.78;;;;;;;22.37;95.54;100480.53;4874172;29;20210;-68
2023/08/18 04:12:40;;;;;;;11.50;6.72;;;;;;;22.31;96.08;100480.59;4878842;29;20213;-69
2023/08/18 04:15:09;;;;;;;10.32;6.57;;;;;;;22.27;96.34;100469.41;4877911;29;20262;-69
2023/08/18 04:17:36;;;;;;;13.13;6.45;;;;;;;22.26;96.14;100477.75;4876231;29;20320;-69
2023/08/18 04:20:05;;;;;;;10.65;6.93;;;;;;;22.26;96.24;100475.88;4878314;29;20289;-69
2023/08/18 04:22:33;;;;;;;12.57;6.70;;;;;;;22.27;96.17;100471.28;4878740;29;20205;-70
2023/08/18 04:25:01;;;;;;;8.35;7.43;;;;;;;22.28;95.79;100468.38;4879526;29;21069;-69
2023/08/18 04:27:29;;;;;;;9.02;6.88;;;;;;;22.28;95.33;100464.84;4878861;29;20305;-70
2023/08/18 04:29:58;;;;;;;11.52;6.82;;;;;;;22.29;95.21;100466.50;4878969;29;20615;-69
2023/08/18 04:32:25;;;;;;;13.35;7.15;;;;;;;22.29;95.06;100467.31;4876957;29;20234;-68
2023/08/18 04:34:53;;;;;;;11.90;6.65;;;;;;;22.30;94.80;100468.97;4876902;29;20838;-69
2023/08/18 04:37:22;;;;;;;9.68;6.93;;;;;;;22.29;94.59;100471.91;4878711;29;20214;-68
2023/08/18 04:39:49;;;;;;;13.48;6.97;;;;;;;22.27;94.84;100480.22;4875138;29;20332;-69
2023/08/18 04:42:17;;;;;;;9.35;6.88;;;;;;;22.27;94.83;100479.41;4877673;29;20269;-69
2023/08/18 04:44:44;;;;;;;12.70;6.45;;;;;;;22.24;94.86;100474.47;4876734;29;20589;-70
2023/08/18 04:47:13;;;;;;;9.63;6.32;;;;;;;22.23;94.97;100472.81;4876872;29;20858;-69
2023/08/18 04:49:41;;;;;;;12.88;6.95;;;;;;;22.21;94.92;100480.31;4878214;29;20635;-69
2023/08/18 04:52:10;;;;;;;12.77;7.15;;;;;;;22.22;94.75;100487.34;4881046;29;20210;-69
2023/08/18 04:54:37;;;;;;;13.25;7.57;;;;;;;22.21;94.74;100474.91;4878525;29;20241;-68
2023/08/18 04:57:07;;;;;;;11.43;7.40;;;;;;;22.21;94.47;100475.72;4877350;29;21065;-70
2023/08/18 04:59:34;;;;;;;15.07;6.80;;;;;;;22.22;94.26;100476.56;4877049;29;20237;-70
2023/08/18 05:02:02;;;;;;;14.88;7.32;;;;;;;22.21;95.40;100477.59;4876114;29;20348;-68
2023/08/18 05:04:31;;;;;;;14.15;7.35;;;;;;;22.21;95.16;100483.00;4878530;29;20210;-68
2023/08/18 05:06:59;;;;;;;10.13;7.18;;;;;;;22.23;94.90;100486.31;4877451;29;20655;-66
2023/08/18 05:09:30;;;;;;;8.80;7.10;;;;;;;22.24;94.92;100485.25;4877814;29;20374;-70
2023/08/18 05:11:58;;;;;;;10.73;7.05;;;;;;;22.26;94.86;100493.94;4875580;29;20807;-69
2023/08/18 05:14:25;;;;;;;7.85;6.53;;;;;;;22.27;94.76;100485.63;4877004;29;20212;-70
2023/08/18 05:16:53;;;;;;;11.57;7.03;;;;;;;22.29;94.55;100488.94;4874231;29;20624;-69
2023/08/18 05:19:21;;;;;;;11.93;6.82;;;;;;;22.29;94.72;100494.34;4874649;29;20252;-68
2023/08/18 05:21:50;;;;;;;7.95;7.15;;;;;;;22.32;94.37;100503.88;4874970;29;20749;-71
2023/08/18 05:24:17;;;;;;;10.48;7.07;;;;;;;22.37;94.24;100504.00;4877792;29;20245;-69
2023/08/18 05:26:45;;;;;;;9.70;6.50;;;;;;;22.38;94.24;100508.38;4877085;29;20218;-67
2023/08/18 05:29:13;;;;;;;11.73;6.88;;;;;;;22.39;94.17;100510.03;4876706;29;20334;-68
2023/08/18 05:31:41;;;;;;;11.73;6.90;;;;;;;22.34;94.59;100507.19;4874693;29;20209;-67
2023/08/18 05:34:08;;;;;;;11.32;7.15;;;;;;;22.35;94.51;100500.72;4878559;29;20825;-68
2023/08/18 05:36:36;;;;;;;8.38;7.00;;;;;;;22.35;94.26;100512.34;4875485;29;20364;-68
2023/08/18 05:39:05;;;;;;;10.63;6.60;;;;;;;22.39;93.97;100518.13;4875267;29;20324;-68
2023/08/18 05:41:33;;;;;;;13.70;7.10;;;;;;;22.44;93.67;100512.88;4875235;29;20322;-68
2023/08/18 05:44:01;;;;;;;10.40;6.88;;;;;;;22.44;93.93;100502.06;4875834;29;20222;-70
2023/08/18 05:46:30;;;;;;;12.02;7.90;;;;;;;22.41;94.44;100499.84;4874932;29;20212;-70
2023/08/18 05:48:58;;;;;;;10.77;6.50;;;;;;;22.41;94.35;100502.53;4873121;29;20352;-70
2023/08/18 05:51:25;;;;;;;10.05;6.57;;;;;;;22.43;94.38;100505.81;4877015;29;20964;-70
2023/08/18 05:53:53;;;;;;;9.68;6.53;;;;;;;22.44;94.18;100502.06;4876375;29;20312;-70
2023/08/18 05:56:22;;;;;;;13.00;6.85;;;;;;;22.45;94.02;100499.16;4876803;29;20248;-70
2023/08/18 05:58:50;;;;;;;7.88;6.65;;;;;;;22.47;93.73;100501.63;4877919;29;20248;-70
2023/08/18 06:01:18;;;;;;;9.02;6.88;;;;;;;22.49;93.89;100499.53;4875750;29;21050;-71
2023/08/18 06:03:45;;;;;;;10.55;7.07;;;;;;;22.48;93.82;100500.56;4877489;29;20217;-70
2023/08/18 06:06:13;;;;;;;11.38;7.30;;;;;;;22.51;93.42;100508.25;4879610;29;20241;-70
2023/08/18 06:08:41;;;;;;;9.30;6.45;;;;;;;22.52;93.82;100509.88;4877904;29;20355;-69
2023/08/18 06:11:09;;;;;;;13.07;7.60;;;;;;;22.58;93.38;100506.28;4877725;29;21082;-69
2023/08/18 06:13:38;;;;;;;9.43;7.35;;;;;;;22.60;93.42;100506.06;4879151;29;20225;-70
2023/08/18 06:16:06;;;;;;;9.90;7.10;;;;;;;22.59;93.42;100510.66;4876537;29;20210;-69
2023/08/18 06:18:34;;;;;;;10.77;6.70;;;;;;;22.64;93.38;100515.34;4874860;29;20233;-69
2023/08/18 06:21:02;;;;;;;9.65;7.35;;;;;;;22.68;93.23;100517.41;4877661;29;20821;-71
2023/08/18 06:23:30;;;;;;;12.45;7.63;;;;;;;22.69;93.77;100520.94;4879933;29;20945;-70
2023/08/18 06:25:57;;;;;;;11.10;6.80;;;;;;;22.70;93.37;100520.69;4876795;29;20213;-69
2023/08/18 06:28:26;;;;;;;8.90;7.82;;;;;;;22.76;92.61;100521.69;4875839;29;20924;-69
2023/08/18 06:31:03;;;;;;;8.10;6.82;;;;;;;22.80;92.17;100523.72;4876881;29;20328;-70
2023/08/18 06:33:31;;;;;;;14.02;6.97;;;;;;;22.82;92.83;100526.19;4877748;29;20261;-70
2023/08/18 06:35:59;;;;;;;11.35;7.10;;;;;;;22.83;92.20;100533.25;4875558;29;20321;-69
2023/08/18 06:38:26;;;;;;;9.80;6.82;;;;;;;22.86;91.24;100527.41;4876097;29;20212;-69
2023/08/18 06:40:54;;;;;;;11.25;7.45;;;;;;;22.89;92.92;100541.28;4874008;29;20310;-70
2023/08/18 06:43:22;;;;;;;9.80;6.90;;;;;;;22.87;94.10;100537.97;4875494;29;20253;-69
2023/08/18 06:45:50;;;;;;;8.27;6.45;;;;;;;22.88;93.25;100538.78;4875558;29;20315;-70
2023/08/18 06:48:19;;;;;;;10.18;6.85;;;;;;;22.93;92.76;100546.25;4877770;29;20220;-71
2023/08/18 06:50:47;;;;;;;15.20;8.32;;;;;;;22.97;93.01;100533.91;4881161;29;20221;-70
2023/08/18 06:53:15;;;;;;;9.60;6.72;;;;;;;22.97;94.66;100542.00;4878842;29;20218;-69
2023/08/18 06:55:43;;;;;;;8.48;6.32;;;;;;;22.99;93.12;100548.84;4879688;29;20226;-70
2023/08/18 06:58:28;;;;;;;9.32;6.43;;;;;;;23.07;91.58;100548.53;4877930;29;20217;-69
2023/08/18 07:00:56;;;;;;;9.98;7.45;;;;;;;23.13;90.86;100555.72;4882952;29;21104;-69
2023/08/18 07:03:25;;;;;;;10.07;7.00;;;;;;;23.18;90.85;100544.25;4877812;29;20308;-70
2023/08/18 07:05:53;;;;;;;9.05;6.25;;;;;;;23.23;90.33;100541.66;4880260;29;20696;-68
2023/08/18 07:08:22;;;;;;;11.80;7.68;;;;;;;23.30;89.00;100547.84;4881734;29;20221;-71
2023/08/18 07:10:50;;;;;;;9.23;7.07;;;;;;;23.33;88.47;100539.22;4878702;29;20221;-69
2023/08/18 07:13:20;;;;;;;9.95;6.82;;;;;;;23.39;89.34;100548.34;4881759;29;20204;-69
2023/08/18 07:15:47;;;;;;;17.08;7.97;;;;;;;23.43;89.81;100549.50;4881313;29;20225;-70
2023/08/18 07:18:18;;;;;;;11.13;8.18;;;;;;;23.45;91.41;100550.09;4878364;29;20270;-70
2023/08/18 07:20:47;;;;;;;11.65;7.18;;;;;;;23.46;88.24;100552.59;4879016;29;21057;-69
2023/08/18 07:23:15;;;;;;;8.07;7.15;;;;;;;23.51;87.46;100552.75;4879082;29;21039;-69
2023/08/18 07:25:44;;;;;;;10.57;7.45;;;;;;;23.59;88.69;100554.28;4879037;29;20617;-68
2023/08/18 07:28:12;;;;;;;11.15;7.43;;;;;;;23.67;87.97;100558.53;4876776;29;20957;-66
2023/08/18 07:30:40;;;;;;;8.15;6.53;;;;;;;23.72;87.66;100558.69;4877694;29;20217;-66
2023/08/18 07:33:07;;;;;;;8.30;6.60;;;;;;;23.79;86.77;100551.28;4876749;29;20304;-65
2023/08/18 07:35:35;;;;;;;17.65;8.68;;;;;;;23.82;87.35;100565.19;4871837;29;20220;-65
2023/08/18 07:38:05;;;;;;;15.13;8.32;;;;;;;23.87;86.80;100553.66;4875654;29;20222;-68
2023/08/18 07:40:33;;;;;;;14.30;7.32;;;;;;;23.94;86.34;100548.94;4875388;29;20229;-66
2023/08/18 07:43:01;;;;;;;11.43;7.22;;;;;;;24.00;86.95;100550.75;4874172;29;20246;-66
2023/08/18 07:45:30;;;;;;;12.60;7.00;;;;;;;24.03;85.71;100552.97;4877754;29;20218;-65
2023/08/18 07:47:59;;;;;;;13.70;7.60;;;;;;;24.11;85.95;100549.06;4878452;29;20634;-65
2023/08/18 07:50:27;;;;;;;12.07;7.20;;;;;;;24.19;86.66;100554.97;4874491;29;20225;-65
2023/08/18 07:52:55;;;;;;;11.50;7.80;;;;;;;24.25;85.85;100559.50;4878792;29;20210;-65
2023/08/18 07:55:24;;;;;;;11.70;8.02;;;;;;;24.31;85.42;100557.72;4874326;29;20301;-64
2023/08/18 07:57:52;;;;;;;14.68;7.32;;;;;;;24.38;86.76;100559.25;4873554;29;20636;-64
2023/08/18 08:00:21;;;;;;;10.25;8.23;;;;;;;24.46;86.39;100552.63;4872683;29;20237;-65
2023/08/18 08:02:49;;;;;;;9.63;7.55;;;;;;;24.54;84.82;100557.69;4877649;29;20329;-63
2023/08/18 08:05:19;;;;;;;11.18;7.78;;;;;;;24.67;84.36;100564.75;4872361;29;20998;-63
2023/08/18 08:07:47;;;;;;;10.48;7.72;;;;;;;24.78;83.98;100563.91;4878036;29;20292;-66
2023/08/18 08:10:15;;;;;;;16.23;8.30;;;;;;;24.90;83.47;100559.28;4874091;29;20218;-64
2023/08/18 08:12:45;;;;;;;12.10;7.88;;;;;;;25.04;83.64;100568.00;4875037;29;20210;-64
2023/08/18 08:15:14;;;;;;;12.18;7.78;;;;;;;25.15;82.90;100564.44;4876326;29;20297;-65
2023/08/18 08:17:42;;;;;;;13.50;8.57;;;;;;;25.28;81.74;100571.47;4874599;29;20209;-65
2023/08/18 08:20:15;;;;;;;13.95;8.68;;;;;;;25.37;80.58;100561.88;4876055;29;20234;-64
2023/08/18 08:22:43;;;;;;;12.35;8.80;;;;;;;25.50;80.20;100561.59;4875198;29;20214;-63
2023/08/18 08:25:12;;;;;;;13.43;8.93;;;;;;;25.62;78.96;100564.25;4877160;29;20280;-64
2023/08/18 08:27:40;;;;;;;12.07;7.97;;;;;;;25.72;76.20;100565.25;4875542;29;20209;-64
2023/08/18 08:30:12;;;;;;;12.20;6.68;;;;;;;25.83;75.86;100569.78;4872833;29;20391;-65
2023/08/18 08:32:53;;;;;;;10.75;6.53;;;;;;;25.94;75.93;100562.66;4875819;29;20206;-63
2023/08/18 08:35:21;;;;;;;11.82;7.50;;;;;;;26.05;74.65;100555.47;4875942;29;20206;-63
2023/08/18 08:37:54;;;;;;;13.90;7.88;;;;;;;26.12;73.55;100554.22;4875638;29;20927;-63
2023/08/18 08:40:22;;;;;;;12.85;7.13;;;;;;;26.21;74.19;100557.38;4874673;29;20238;-63
2023/08/18 08:42:53;;;;;;;10.10;6.70;;;;;;;26.33;73.80;100560.00;4873554;29;20332;-64
2023/08/18 08:45:23;;;;;;;10.93;7.13;;;;;;;26.43;73.36;100560.97;4874866;29;20788;-64
2023/08/18 08:47:52;;;;;;;14.00;7.20;;;;;;;26.54;71.96;100551.06;4872877;29;20218;-64
2023/08/18 08:50:20;;;;;;;9.38;6.18;;;;;;;26.64;71.73;100555.81;4873864;29;20214;-64
2023/08/18 08:52:51;;;;;;;10.90;7.05;;;;;;;26.73;69.37;100557.03;4878412;29;20278;-64
2023/08/18 08:55:24;;;;;;;12.10;7.47;;;;;;;26.81;70.29;100559.31;4873848;29;20217;-64
2023/08/18 08:57:52;;;;;;;10.13;7.20;;;;;;;26.93;69.42;100560.03;4874257;29;20217;-65
2023/08/18 09:00:21;;;;;;;14.38;7.05;;;;;;;27.03;69.50;100554.72;4875450;29;20404;-64
2023/08/18 09:02:59;;;;;;;10.38;6.07;;;;;;;27.13;69.09;100560.28;4873411;29;20291;-63
2023/08/18 09:05:30;;;;;;;10.63;5.97;;;;;;;27.27;65.81;100564.22;4875151;29;20209;-64
2023/08/18 09:07:57;;;;;;;10.15;6.30;;;;;;;27.34;63.63;100561.31;4874550;29;20214;-64
2023/08/18 09:10:26;;;;;;;12.07;6.53;;;;;;;27.43;63.92;100550.78;4873522;29;20900;-63
2023/08/18 09:12:55;;;;;;;9.52;6.15;;;;;;;27.50;63.02;100559.56;4875414;29;20206;-65
2023/08/18 09:15:24;;;;;;;11.23;6.50;;;;;;;27.57;62.12;100558.31;4873900;29;20217;-64
2023/08/18 09:17:52;;;;;;;10.07;5.75;;;;;;;27.67;61.82;100554.88;4873766;29;20214;-66
2023/08/18 09:20:22;;;;;;;11.20;6.28;;;;;;;27.79;61.42;100554.72;4875229;29;20328;-63
2023/08/18 09:22:54;;;;;;;13.48;5.30;;;;;;;27.97;60.23;100555.09;4873510;29;20212;-63
2023/08/18 09:25:22;;;;;;;18.95;6.93;;;;;;;28.09;59.93;100552.22;4874545;29;20821;-66
2023/08/18 09:27:54;;;;;;;12.45;6.72;;;;;;;28.17;60.54;100550.94;4874312;29;20228;-64
2023/08/18 09:30:24;;;;;;;10.32;6.05;;;;;;;28.33;59.41;100547.22;4874644;29;20306;-63
2023/08/18 09:32:52;;;;;;;12.27;5.80;;;;;;;28.43;59.56;100550.00;4872997;29;20751;-63
2023/08/18 09:35:20;;;;;;;13.50;6.10;;;;;;;28.51;58.59;100544.06;4875869;29;20218;-63
2023/08/18 09:37:55;;;;;;;11.38;6.57;;;;;;;28.54;58.73;100538.06;4875546;29;20210;-63
2023/08/18 09:40:22;;;;;;;12.20;6.30;;;;;;;28.58;58.96;100539.19;4873529;29;20224;-65
2023/08/18 09:42:50;;;;;;;12.65;5.97;;;;;;;28.68;58.92;100538.41;4874742;29;20248;-62
2023/08/18 09:45:20;;;;;;;12.45;6.20;;;;;;;28.76;58.83;100541.47;4872648;29;20297;-63
2023/08/18 09:47:53;;;;;;;12.90;6.45;;;;;;;28.82;59.87;100536.88;4875315;29;20210;-63
2023/08/18 09:50:24;;;;;;;10.05;5.88;;;;;;;29.00;56.86;100539.13;4873159;29;20214;-63
2023/08/18 09:52:55;;;;;;;15.20;6.57;;;;;;;29.00;57.49;100532.84;4869663;29;20308;-63
2023/08/18 09:55:26;;;;;;;14.82;6.75;;;;;;;28.99;56.44;100531.19;4871900;29;20218;-63
2023/08/18 09:58:00;;;;;;;16.90;6.13;;;;;;;29.12;57.97;100531.50;4874811;29;20594;-64
2023/08/18 10:00:29;;;;;;;8.70;5.93;;;;;;;29.18;57.43;100529.63;4876025;29;20229;-62
2023/08/18 10:03:03;;;;;;;13.45;6.50;;;;;;;29.26;55.53;100531.81;4873583;29;20911;-63
2023/08/18 10:05:32;;;;;;;12.73;6.20;;;;;;;29.29;54.80;100539.44;4873352;29;20300;-62
2023/08/18 10:08:01;;;;;;;10.68;5.93;;;;;;;29.35;54.70;100532.94;4874195;29;20233;-64
2023/08/18 10:10:28;;;;;;;9.32;5.82;;;;;;;29.34;55.17;100525.81;4873299;29;20217;-63
2023/08/18 10:12:56;;;;;;;8.95;5.65;;;;;;;29.38;54.62;100516.00;4874499;29;20265;-64
2023/08/18 10:15:24;;;;;;;9.00;4.97;;;;;;;29.24;56.71;100517.59;4870311;29;20218;-65
2023/08/18 10:17:52;;;;;;;9.38;5.75;;;;;;;29.11;56.74;100520.88;4872924;29;20210;-64
2023/08/18 10:20:26;;;;;;;7.60;5.22;;;;;;;29.05;56.60;100519.19;4871374;29;20210;-65
2023/08/18 10:22:55;;;;;;;12.25;5.90;;;;;;;29.10;56.53;100521.97;4875192;29;20748;-65
2023/08/18 10:25:28;;;;;;;11.60;6.05;;;;;;;29.20;55.67;100516.53;4873406;29;20250;-64
2023/08/18 10:27:57;;;;;;;9.25;5.10;;;;;;;29.36;54.61;100501.00;4872670;29;20573;-63
2023/08/18 10:30:29;;;;;;;7.28;5.05;;;;;;;29.51;54.29;100504.56;4872024;29;20258;-64
2023/08/18 10:33:03;;;;;;;9.93;5.20;;;;;;;29.74;54.53;100507.84;4872071;29;20217;-64
2023/08/18 10:35:33;;;;;;;8.73;5.60;;;;;;;30.01;52.20;100494.72;4871446;29;20215;-64
2023/08/18 10:38:04;;;;;;;10.80;6.22;;;;;;;30.36;49.94;100493.00;4872736;29;20625;-64
2023/08/18 10:40:34;;;;;;;10.05;5.28;;;;;;;30.49;50.14;100495.97;4873043;29;20210;-65
2023/08/18 10:43:07;;;;;;;7.82;4.57;;;;;;;30.79;48.78;100495.03;4873315;29;20320;-64
2023/08/18 10:45:36;;;;;;;12.13;5.68;;;;;;;30.92;48.54;100497.19;4873895;29;20295;-64
2023/08/18 10:48:05;;;;;;;10.73;5.70;;;;;;;30.99;47.54;100497.69;4872969;29;20214;-64
2023/08/18 10:50:36;;;;;;;12.20;4.93;;;;;;;30.99;47.67;100492.22;4874030;29;20681;-65
2023/08/18 10:53:04;;;;;;;8.43;3.85;;;;;;;30.91;48.14;100489.25;4875915;29;20221;-65
2023/08/18 10:55:33;;;;;;;10.57;4.35;;;;;;;30.88;48.47;100487.88;4874759;29;20338;-64
2023/08/18 10:58:01;;;;;;;10.32;4.57;;;;;;;30.92;47.74;100480.75;4875441;29;20614;-63
2023/08/18 11:00:32;;;;;;;9.25;4.20;;;;;;;31.15;48.01;100478.44;4874521;29;20228;-65
2023/08/18 11:03:03;;;;;;;12.18;4.85;;;;;;;31.63;44.85;100477.56;4871507;29;20280;-65
2023/08/18 11:05:35;;;;;;;6.72;4.15;;;;;;;32.19;41.99;100468.00;4875600;29;20237;-64
2023/08/18 11:08:05;;;;;;;8.73;4.82;;;;;;;32.27;42.79;100462.69;4874771;29;20261;-64
2023/08/18 11:10:36;;;;;;;9.20;5.10;;;;;;;32.30;43.89;100467.59;4874667;29;20265;-64
2023/08/18 11:13:04;;;;;;;7.00;4.72;;;;;;;32.48;44.08;100463.25;4872545;29;20236;-64
2023/08/18 11:15:34;;;;;;;9.73;4.85;;;;;;;32.88;42.93;100467.44;4875447;29;20224;-65
2023/08/18 11:18:03;;;;;;;9.23;4.63;;;;;;;33.83;40.15;100460.72;4872013;29;20692;-63
2023/08/18 11:20:31;;;;;;;9.05;4.43;;;;;;;34.86;38.27;100461.97;4874082;29;20226;-65
2023/08/18 11:23:00;;;;;;;9.15;4.45;;;;;;;35.99;36.51;100455.34;4873580;29;20218;-68
2023/08/18 11:25:32;;;;;;;13.55;4.72;;;;;;;37.43;34.53;100446.06;4874770;29;20210;-64
2023/08/18 11:28:00;;;;;;;8.90;4.05;;;;;;;39.01;30.81;100433.63;4874723;29;20218;-64
2023/08/18 11:30:27;;;;;;;8.05;4.47;;;;;;;40.71;28.73;100427.56;4869862;29;20248;-64